createdAt,value
2023-12-15T00:00:25.382Z,15.50
2023-12-15T00:02:52.315Z,15.80
2023-12-15T00:05:19.316Z,14.40
2023-12-15T00:07:46.454Z,14.10
2023-12-15T00:10:13.398Z,15.50
2023-12-15T00:12:40.401Z,13.90
2023-12-15T00:15:07.242Z,13.90
2023-12-15T00:17:34.454Z,15.50
2023-12-15T00:20:01.675Z,15.00
2023-12-15T00:22:28.582Z,14.70
2023-12-15T00:24:55.448Z,16.30
2023-12-15T00:27:22.443Z,14.00
2023-12-15T00:29:49.420Z,14.60
2023-12-15T00:32:16.321Z,15.10
2023-12-15T00:34:43.113Z,14.90
2023-12-15T00:37:10.045Z,15.20
2023-12-15T00:39:36.995Z,14.60
2023-12-15T00:42:03.835Z,14.00
2023-12-15T00:44:30.718Z,14.60
2023-12-15T00:46:57.715Z,14.60
2023-12-15T00:49:24.474Z,13.30
2023-12-15T00:51:51.519Z,13.70
2023-12-15T00:54:18.461Z,14.80
2023-12-15T00:56:45.301Z,15.30
2023-12-15T00:59:12.297Z,13.50
2023-12-15T01:01:39.181Z,13.90
2023-12-15T01:04:06.439Z,13.40
2023-12-15T01:06:33.333Z,13.40
2023-12-15T01:09:00.335Z,13.30
2023-12-15T01:11:27.332Z,12.70
2023-12-15T01:13:54.433Z,14.40
2023-12-15T01:16:21.281Z,14.80
2023-12-15T01:18:48.312Z,14.20
2023-12-15T01:21:15.251Z,12.80
2023-12-15T01:23:42.534Z,13.60
2023-12-15T01:26:09.379Z,12.70
2023-12-15T01:28:36.289Z,14.30
2023-12-15T01:31:03.161Z,12.90
2023-12-15T01:33:30.212Z,13.80
2023-12-15T01:35:57.338Z,12.30
2023-12-15T01:38:24.483Z,13.30
2023-12-15T01:40:51.590Z,14.90
2023-12-15T01:43:18.977Z,12.00
2023-12-15T01:45:45.829Z,14.00
2023-12-15T01:48:13.155Z,13.10
2023-12-15T01:50:40.381Z,14.40
2023-12-15T01:53:07.400Z,13.30
2023-12-15T01:55:34.426Z,12.80
2023-12-15T01:58:01.343Z,13.70
2023-12-15T02:00:28.447Z,13.10
2023-12-15T02:02:55.373Z,14.20
2023-12-15T02:05:22.676Z,13.20
2023-12-15T02:07:49.651Z,13.80
2023-12-15T02:10:16.596Z,13.90
2023-12-15T02:12:43.442Z,13.60
2023-12-15T02:15:10.513Z,14.30
2023-12-15T02:17:37.589Z,13.50
2023-12-15T02:20:04.916Z,14.40
2023-12-15T02:22:31.728Z,13.40
2023-12-15T02:24:58.712Z,13.60
2023-12-15T02:27:25.538Z,13.20
2023-12-15T02:29:52.457Z,13.80
2023-12-15T02:32:19.401Z,12.40
2023-12-15T02:34:46.477Z,14.10
2023-12-15T02:37:13.297Z,12.20
2023-12-15T02:39:40.238Z,13.20
2023-12-15T02:42:07.104Z,12.10
2023-12-15T02:44:33.917Z,13.10
2023-12-15T02:47:01.103Z,12.10
2023-12-15T02:49:27.950Z,12.30
2023-12-15T02:51:54.855Z,13.10
2023-12-15T02:54:21.703Z,12.60
2023-12-15T02:56:48.644Z,12.70
2023-12-15T02:59:15.522Z,13.10
2023-12-15T03:01:42.538Z,11.10
2023-12-15T03:04:09.381Z,12.40
2023-12-15T03:06:36.310Z,11.90
2023-12-15T03:09:03.163Z,10.80
2023-12-15T03:11:30.530Z,12.20
2023-12-15T03:13:57.583Z,11.60
2023-12-15T03:16:24.498Z,11.00
2023-12-15T03:18:51.371Z,11.10
2023-12-15T03:21:18.287Z,11.70
2023-12-15T03:23:45.152Z,11.20
2023-12-15T03:26:12.006Z,11.00
2023-12-15T03:28:38.913Z,11.70
2023-12-15T03:31:06.060Z,10.90
2023-12-15T03:33:32.966Z,10.70
2023-12-15T03:35:59.958Z,11.00
2023-12-15T03:38:27.019Z,11.90
2023-12-15T03:40:53.979Z,11.60
2023-12-15T03:43:20.680Z,11.10
2023-12-15T03:45:47.547Z,12.10
2023-12-15T03:48:14.535Z,11.00
2023-12-15T03:50:41.529Z,11.20
2023-12-15T03:53:08.845Z,11.40
2023-12-15T03:55:35.829Z,11.10
2023-12-15T03:58:02.770Z,11.60
2023-12-15T04:00:29.697Z,12.50
2023-12-15T04:02:56.595Z,11.40
2023-12-15T04:05:23.771Z,11.20
2023-12-15T04:07:50.752Z,12.10
2023-12-15T04:10:17.698Z,11.90
2023-12-15T04:12:44.535Z,12.40
2023-12-15T04:15:11.785Z,12.00
2023-12-15T04:17:38.973Z,11.70
2023-12-15T04:20:06.512Z,11.00
2023-12-15T04:22:33.536Z,12.00
2023-12-15T04:25:00.487Z,10.70
2023-12-15T04:27:27.456Z,13.20
2023-12-15T04:29:54.474Z,12.20
2023-12-15T04:32:21.760Z,10.60
2023-12-15T04:34:48.665Z,12.00
2023-12-15T04:37:15.619Z,10.60
2023-12-15T04:39:42.469Z,11.50
2023-12-15T04:42:09.712Z,11.80
2023-12-15T04:44:36.692Z,11.70
2023-12-15T04:47:03.615Z,15.40
2023-12-15T04:49:30.335Z,13.30
2023-12-15T04:51:57.179Z,14.40
2023-12-15T04:54:24.435Z,12.60
2023-12-15T04:56:51.269Z,12.90
2023-12-15T04:59:18.257Z,13.00
2023-12-15T05:01:45.048Z,11.00
2023-12-15T05:04:11.910Z,12.30
2023-12-15T05:06:38.778Z,14.10
2023-12-15T05:09:05.789Z,13.70
2023-12-15T05:11:32.650Z,12.10
2023-12-15T05:13:59.599Z,13.00
2023-12-15T05:16:26.784Z,11.90
2023-12-15T05:18:54.245Z,11.90
2023-12-15T05:21:21.359Z,11.70
2023-12-15T05:23:48.167Z,13.10
2023-12-15T05:26:15.033Z,13.40
2023-12-15T05:28:41.953Z,12.80
2023-12-15T05:31:08.893Z,12.60
2023-12-15T05:33:35.918Z,12.50
2023-12-15T05:36:03.010Z,11.90
2023-12-15T05:38:30.267Z,12.30
2023-12-15T05:40:57.112Z,12.10
2023-12-15T05:43:24.028Z,13.20
2023-12-15T05:45:50.977Z,13.80
2023-12-15T05:48:18.002Z,13.70
2023-12-15T05:50:45.216Z,15.00
2023-12-15T05:53:12.127Z,15.30
2023-12-15T05:55:39.061Z,12.90
2023-12-15T05:58:05.907Z,14.40
2023-12-15T06:00:32.848Z,15.00
2023-12-15T06:02:59.827Z,14.30
2023-12-15T06:05:26.704Z,16.30
2023-12-15T06:07:53.707Z,15.00
2023-12-15T06:10:20.521Z,14.60
2023-12-15T06:12:47.591Z,15.80
2023-12-15T06:15:14.550Z,16.30
2023-12-15T06:17:41.827Z,16.40
2023-12-15T06:20:09.354Z,23.10
2023-12-15T06:22:36.177Z,21.80
2023-12-15T06:25:03.111Z,22.20
2023-12-15T06:27:29.958Z,22.20
2023-12-15T06:29:56.894Z,23.00
2023-12-15T06:32:23.766Z,14.00
2023-12-15T06:34:50.678Z,13.20
2023-12-15T06:37:17.568Z,13.40
2023-12-15T06:39:44.876Z,15.30
2023-12-15T06:42:11.746Z,17.10
2023-12-15T06:44:38.819Z,19.30
2023-12-15T06:47:05.787Z,19.40
2023-12-15T06:49:32.825Z,19.50
2023-12-15T06:51:59.910Z,15.50
2023-12-15T06:54:26.749Z,17.00
2023-12-15T06:56:53.689Z,17.00
2023-12-15T06:59:20.640Z,16.60
2023-12-15T07:01:47.711Z,16.30
2023-12-15T07:04:14.650Z,16.10
2023-12-15T07:06:42.143Z,18.90
2023-12-15T07:09:09.036Z,18.60
2023-12-15T07:11:36.013Z,22.00
2023-12-15T07:14:02.969Z,18.40
2023-12-15T07:16:29.964Z,18.00
2023-12-15T07:18:56.867Z,20.30
2023-12-15T07:21:24.068Z,21.60
2023-12-15T07:23:50.893Z,19.00
2023-12-15T07:26:17.875Z,20.10
2023-12-15T07:28:44.789Z,23.10
2023-12-15T07:31:12.730Z,20.40
2023-12-15T07:33:39.875Z,17.40
2023-12-15T07:36:07.025Z,16.70
2023-12-15T07:38:34.161Z,18.60
2023-12-15T07:41:01.097Z,19.70
2023-12-15T07:43:28.310Z,20.60
2023-12-15T07:45:55.548Z,18.60
2023-12-15T07:48:22.584Z,22.00
2023-12-15T07:50:49.449Z,23.80
2023-12-15T07:53:16.562Z,25.40
2023-12-15T07:55:43.523Z,27.00
2023-12-15T07:58:10.475Z,21.10
2023-12-15T08:00:37.319Z,31.10
2023-12-15T08:03:04.331Z,27.40
2023-12-15T08:05:31.393Z,26.60
2023-12-15T08:07:58.805Z,25.90
2023-12-15T08:10:25.602Z,26.00
2023-12-15T08:12:52.542Z,23.90
2023-12-15T08:15:19.387Z,25.90
2023-12-15T08:17:46.385Z,22.70
2023-12-15T08:20:13.319Z,24.40
2023-12-15T08:22:40.158Z,22.60
2023-12-15T08:25:07.065Z,23.70
2023-12-15T08:27:34.429Z,22.70
2023-12-15T08:30:01.487Z,23.30
2023-12-15T08:32:28.438Z,23.30
2023-12-15T08:34:55.468Z,20.10
2023-12-15T08:37:22.304Z,25.20
2023-12-15T08:39:49.557Z,24.80
2023-12-15T08:42:16.409Z,23.70
2023-12-15T08:44:45.107Z,20.70
2023-12-15T08:47:12.354Z,22.60
2023-12-15T08:49:39.499Z,20.60
2023-12-15T08:52:06.450Z,20.30
2023-12-15T08:54:33.377Z,20.90
2023-12-15T08:57:00.346Z,20.10
2023-12-15T08:59:27.313Z,20.50
2023-12-15T09:01:54.194Z,20.90
2023-12-15T09:04:21.135Z,19.70
2023-12-15T09:06:49.778Z,17.50
2023-12-15T09:09:18.541Z,19.00
2023-12-15T09:11:45.388Z,18.70
2023-12-15T09:14:12.796Z,19.30
2023-12-15T09:16:39.804Z,19.50
2023-12-15T09:19:06.791Z,19.80
2023-12-15T09:21:33.752Z,19.20
2023-12-15T09:24:00.697Z,19.00
2023-12-15T09:26:27.685Z,23.00
2023-12-15T09:28:54.579Z,18.70
2023-12-15T09:31:21.540Z,18.00
2023-12-15T09:33:48.936Z,18.60
2023-12-15T09:36:16.090Z,19.50
2023-12-15T09:38:43.076Z,19.80
2023-12-15T09:41:10.039Z,17.90
2023-12-15T09:43:36.864Z,15.70
2023-12-15T09:46:03.703Z,19.30
2023-12-15T09:48:30.790Z,20.00
2023-12-15T09:50:58.064Z,19.00
2023-12-15T09:53:25.578Z,13.80
2023-12-15T09:55:52.638Z,22.20
2023-12-15T09:58:19.464Z,17.90
2023-12-15T10:00:46.557Z,16.70
2023-12-15T10:03:13.566Z,14.50
2023-12-15T10:05:40.523Z,16.20
2023-12-15T10:08:07.445Z,18.50
2023-12-15T10:10:34.382Z,19.20
2023-12-15T10:13:01.327Z,16.60
2023-12-15T10:15:30.360Z,17.80
2023-12-15T10:17:57.889Z,13.10
2023-12-15T10:20:24.828Z,17.50
2023-12-15T10:22:51.776Z,16.80
2023-12-15T10:25:18.612Z,17.00
2023-12-15T10:27:45.542Z,16.90
2023-12-15T10:30:12.413Z,16.50
2023-12-15T10:32:39.862Z,17.50
2023-12-15T10:35:07.127Z,15.60
2023-12-15T10:37:34.058Z,17.10
2023-12-15T10:40:04.385Z,15.70
2023-12-15T10:42:32.843Z,15.60
2023-12-15T10:44:59.695Z,16.20
2023-12-15T10:47:26.686Z,15.30
2023-12-15T10:49:53.761Z,16.90
2023-12-15T10:52:20.826Z,16.70
2023-12-15T10:54:47.972Z,15.60
2023-12-15T10:57:14.937Z,16.10
2023-12-15T10:59:41.883Z,15.20
2023-12-15T11:02:08.761Z,14.50
2023-12-15T11:04:35.757Z,16.10
2023-12-15T11:07:02.709Z,15.70
2023-12-15T11:09:36.171Z,15.10
2023-12-15T11:12:11.018Z,15.20
2023-12-15T11:14:37.892Z,13.80
2023-12-15T11:17:05.312Z,15.90
2023-12-15T11:19:32.124Z,13.50
2023-12-15T11:21:59.010Z,12.80
2023-12-15T11:24:25.954Z,16.60
2023-12-15T11:26:52.797Z,13.20
2023-12-15T11:29:19.775Z,12.00
2023-12-15T11:31:46.782Z,14.70
2023-12-15T11:34:13.766Z,13.20
2023-12-15T11:36:40.777Z,12.80
2023-12-15T11:39:07.520Z,14.00
2023-12-15T11:41:34.502Z,13.30
2023-12-15T11:44:01.453Z,13.10
2023-12-15T11:46:28.451Z,13.80
2023-12-15T11:48:55.398Z,14.40
2023-12-15T11:51:22.437Z,14.20
2023-12-15T11:53:49.293Z,13.90
2023-12-15T11:56:16.267Z,13.50
2023-12-15T11:58:43.065Z,13.00
2023-12-15T12:01:10.427Z,14.60
2023-12-15T12:03:37.367Z,13.80
2023-12-15T12:06:04.346Z,13.90
2023-12-15T12:08:31.185Z,14.00
2023-12-15T12:10:58.003Z,11.50
2023-12-15T12:13:24.839Z,13.20
2023-12-15T12:15:51.686Z,13.60
2023-12-15T12:18:18.708Z,13.80
2023-12-15T12:20:45.794Z,12.70
2023-12-15T12:23:13.056Z,14.40
2023-12-15T12:25:40.073Z,11.70
2023-12-15T12:28:06.918Z,13.80
2023-12-15T12:30:33.908Z,12.60
2023-12-15T12:33:00.949Z,12.70
2023-12-15T12:35:28.089Z,12.20
2023-12-15T12:37:55.117Z,13.00
2023-12-15T12:40:22.070Z,12.50
2023-12-15T12:42:49.197Z,13.40
2023-12-15T12:45:16.161Z,12.20
2023-12-15T12:47:43.201Z,14.00
2023-12-15T12:50:10.334Z,13.80
2023-12-15T12:52:37.772Z,12.80
2023-12-15T12:55:05.045Z,13.30
2023-12-15T12:57:32.014Z,13.80
2023-12-15T12:59:58.820Z,14.00
2023-12-15T13:02:25.879Z,13.20
2023-12-15T13:04:53.136Z,11.50
2023-12-15T13:07:20.071Z,12.70
2023-12-15T13:09:46.931Z,11.10
2023-12-15T13:12:13.857Z,12.40
2023-12-15T13:14:40.796Z,12.60
2023-12-15T13:17:07.917Z,14.40
2023-12-15T13:19:34.748Z,13.20
2023-12-15T13:22:01.748Z,12.40
2023-12-15T13:24:28.689Z,12.40
2023-12-15T13:26:55.777Z,12.20
2023-12-15T13:29:30.148Z,12.10
2023-12-15T13:32:00.673Z,12.90
2023-12-15T13:34:27.765Z,11.90
2023-12-15T13:36:54.677Z,11.60
2023-12-15T13:39:21.690Z,11.70
2023-12-15T13:41:48.879Z,11.50
2023-12-15T13:44:15.947Z,11.20
2023-12-15T13:46:42.870Z,14.10
2023-12-15T13:49:09.896Z,11.10
2023-12-15T13:51:37.048Z,12.80
2023-12-15T13:54:03.897Z,12.00
2023-12-15T13:56:30.899Z,11.90
2023-12-15T13:58:59.203Z,11.10
2023-12-15T14:01:28.136Z,12.30
2023-12-15T14:03:55.179Z,11.20
2023-12-15T14:06:22.154Z,10.60
2023-12-15T14:08:49.175Z,10.70
2023-12-15T14:11:16.523Z,10.40
2023-12-15T14:13:43.357Z,11.30
2023-12-15T14:16:10.629Z,10.80
2023-12-15T14:18:38.007Z,9.60
2023-12-15T14:21:04.992Z,9.50
2023-12-15T14:23:32.014Z,10.00
2023-12-15T14:25:58.871Z,10.40
2023-12-15T14:28:25.839Z,9.00
2023-12-15T14:30:52.797Z,9.60
2023-12-15T14:33:20.227Z,9.20
2023-12-15T14:35:47.300Z,10.00
2023-12-15T14:38:14.358Z,8.90
2023-12-15T14:40:41.162Z,8.40
2023-12-15T14:43:08.107Z,7.70
2023-12-15T14:45:34.948Z,9.30
2023-12-15T14:48:19.484Z,8.40
2023-12-15T14:50:48.749Z,9.30
2023-12-15T14:53:16.194Z,8.80
2023-12-15T14:55:43.002Z,9.90
2023-12-15T14:58:09.848Z,9.70
2023-12-15T15:00:36.815Z,10.10
2023-12-15T15:03:04.037Z,11.20
2023-12-15T15:05:31.228Z,9.80
2023-12-15T15:07:58.304Z,9.80
2023-12-15T15:10:25.273Z,10.50
2023-12-15T15:12:52.138Z,10.50
2023-12-15T15:15:19.383Z,11.70
2023-12-15T15:17:46.357Z,11.90
2023-12-15T15:20:13.403Z,10.40
2023-12-15T15:22:40.454Z,10.60
2023-12-15T15:25:07.458Z,10.00
2023-12-15T15:27:34.417Z,9.40
2023-12-15T15:30:01.382Z,9.80
2023-12-15T15:32:28.388Z,10.90
2023-12-15T15:35:03.156Z,11.30
2023-12-15T15:37:34.260Z,10.90
2023-12-15T15:40:01.262Z,11.90
2023-12-15T15:42:28.365Z,12.10
2023-12-15T15:44:55.203Z,12.30
2023-12-15T15:47:25.219Z,12.50
2023-12-15T15:49:57.205Z,11.30
2023-12-15T15:52:24.443Z,11.40
2023-12-15T15:54:51.615Z,10.50
2023-12-15T15:57:18.518Z,11.80
2023-12-15T15:59:45.471Z,11.20
2023-12-15T16:02:12.555Z,13.80
2023-12-15T16:04:39.641Z,12.80
2023-12-15T16:07:06.831Z,11.30
2023-12-15T16:09:33.553Z,11.70
2023-12-15T16:12:00.512Z,12.90
2023-12-15T16:14:27.353Z,11.20
2023-12-15T16:16:54.495Z,12.00
2023-12-15T16:19:21.768Z,11.30
2023-12-15T16:21:48.816Z,13.50
2023-12-15T16:24:16.261Z,12.20
2023-12-15T16:26:44.015Z,11.60
2023-12-15T16:29:10.948Z,13.20
2023-12-15T16:31:37.880Z,11.40
2023-12-15T16:34:05.124Z,14.10
2023-12-15T16:36:32.112Z,15.00
2023-12-15T16:38:59.342Z,12.00
2023-12-15T16:41:26.204Z,12.10
2023-12-15T16:43:53.119Z,13.60
2023-12-15T16:46:19.983Z,13.80
2023-12-15T16:48:47.015Z,15.00
2023-12-15T16:51:13.955Z,15.60
2023-12-15T16:53:41.001Z,14.60
2023-12-15T16:56:08.052Z,20.10
2023-12-15T16:58:35.014Z,14.10
2023-12-15T17:01:01.965Z,26.80
2023-12-15T17:03:31.654Z,11.90
2023-12-15T17:05:58.641Z,18.50
2023-12-15T17:08:25.536Z,15.70
2023-12-15T17:10:52.385Z,15.00
2023-12-15T17:13:19.348Z,12.60
2023-12-15T17:15:46.192Z,13.60
2023-12-15T17:18:13.279Z,16.00
2023-12-15T17:20:40.690Z,26.00
2023-12-15T17:23:07.639Z,14.10
2023-12-15T17:25:34.468Z,19.10
2023-12-15T17:28:01.442Z,21.20
2023-12-15T17:30:28.397Z,23.00
2023-12-15T17:32:55.320Z,25.20
2023-12-15T17:35:22.334Z,26.50
2023-12-15T17:37:49.287Z,20.70
2023-12-15T17:40:16.576Z,16.10
2023-12-15T17:42:43.486Z,15.00
2023-12-15T17:45:10.529Z,15.80
2023-12-15T17:47:37.673Z,25.60
2023-12-15T17:50:04.976Z,14.30
2023-12-15T17:52:31.888Z,20.70
2023-12-15T17:54:58.740Z,21.80
2023-12-15T17:57:25.560Z,15.20
2023-12-15T17:59:52.500Z,17.30
2023-12-15T18:02:19.758Z,18.30
2023-12-15T18:04:46.776Z,17.10
2023-12-15T18:07:13.744Z,18.80
2023-12-15T18:09:40.640Z,19.00
2023-12-15T18:12:07.634Z,20.10
2023-12-15T18:14:34.578Z,18.90
2023-12-15T18:17:01.416Z,17.60
2023-12-15T18:19:28.386Z,16.60
2023-12-15T18:21:55.340Z,16.90
2023-12-15T18:24:22.357Z,15.20
2023-12-15T18:26:49.500Z,21.50
2023-12-15T18:29:16.448Z,18.40
2023-12-15T18:31:43.336Z,18.00
2023-12-15T18:34:10.424Z,23.60
2023-12-15T18:36:37.388Z,17.80
2023-12-15T18:39:04.326Z,17.50
2023-12-15T18:41:31.273Z,17.00
2023-12-15T18:43:58.010Z,19.10
2023-12-15T18:46:24.898Z,18.30
2023-12-15T18:48:52.325Z,19.60
2023-12-15T18:51:19.404Z,17.40
2023-12-15T18:53:46.512Z,19.50
2023-12-15T18:56:13.354Z,20.60
2023-12-15T18:58:40.323Z,26.00
2023-12-15T19:01:07.555Z,31.90
2023-12-15T19:03:34.553Z,35.40
2023-12-15T19:06:01.641Z,34.90
2023-12-15T19:08:28.489Z,35.20
2023-12-15T19:10:55.421Z,35.40
2023-12-15T19:13:22.441Z,33.30
2023-12-15T19:15:49.955Z,35.70
2023-12-15T19:18:16.970Z,30.90
2023-12-15T19:20:43.908Z,30.00
2023-12-15T19:23:10.860Z,32.30
2023-12-15T19:25:37.797Z,24.70
2023-12-15T19:28:05.023Z,21.00
2023-12-15T19:30:31.972Z,24.80
2023-12-15T19:32:58.952Z,25.30
2023-12-15T19:35:26.121Z,27.70
2023-12-15T19:37:53.050Z,23.20
2023-12-15T19:40:19.939Z,21.00
2023-12-15T19:42:46.941Z,25.70
2023-12-15T19:45:13.785Z,25.50
2023-12-15T19:47:40.993Z,28.10
2023-12-15T19:50:08.556Z,28.50
2023-12-15T19:52:35.524Z,34.30
2023-12-15T19:55:02.561Z,30.60
2023-12-15T19:57:29.539Z,27.00
2023-12-15T19:59:56.456Z,27.70
2023-12-15T20:02:23.296Z,28.50
2023-12-15T20:04:50.412Z,30.00
2023-12-15T20:07:17.637Z,29.60
2023-12-15T20:09:45.005Z,32.20
2023-12-15T20:12:12.001Z,34.70
2023-12-15T20:14:38.945Z,30.90
2023-12-15T20:17:05.794Z,29.90
2023-12-15T20:19:32.573Z,25.20
2023-12-15T20:21:59.395Z,28.30
2023-12-15T20:24:26.313Z,27.50
2023-12-15T20:26:53.147Z,32.70
2023-12-15T20:29:20.041Z,31.40
2023-12-15T20:31:47.312Z,31.40
2023-12-15T20:34:14.556Z,30.10
2023-12-15T20:36:41.580Z,25.10
2023-12-15T20:39:08.591Z,27.80
2023-12-15T20:41:35.535Z,31.30
2023-12-15T20:44:02.481Z,28.10
2023-12-15T20:46:29.425Z,30.40
2023-12-15T20:48:56.350Z,29.10
2023-12-15T20:51:23.509Z,21.20
2023-12-15T20:53:50.766Z,25.50
2023-12-15T20:56:17.712Z,27.80
2023-12-15T20:58:44.559Z,28.70
2023-12-15T21:01:11.546Z,26.80
2023-12-15T21:03:38.764Z,21.90
2023-12-15T21:06:05.601Z,23.40
2023-12-15T21:08:32.463Z,23.40
2023-12-15T21:10:59.284Z,26.30
2023-12-15T21:13:26.165Z,21.60
2023-12-15T21:15:53.506Z,23.80
2023-12-15T21:18:20.389Z,25.60
2023-12-15T21:20:47.377Z,23.10
2023-12-15T21:23:14.213Z,21.80
2023-12-15T21:25:41.147Z,20.00
2023-12-15T21:28:07.925Z,25.70
2023-12-15T21:30:34.909Z,23.30
2023-12-15T21:33:02.108Z,25.50
2023-12-15T21:35:32.431Z,25.70
2023-12-15T21:38:03.747Z,21.70
2023-12-15T21:40:30.761Z,23.20
2023-12-15T21:42:57.815Z,26.00
2023-12-15T21:45:24.796Z,21.90
2023-12-15T21:47:51.835Z,26.90
2023-12-15T21:50:18.821Z,26.10
2023-12-15T21:52:45.828Z,20.90
2023-12-15T21:55:13.018Z,25.80
2023-12-15T21:57:40.415Z,28.20
2023-12-15T22:00:07.539Z,25.00
2023-12-15T22:02:34.334Z,26.90
2023-12-15T22:05:01.163Z,26.50
2023-12-15T22:07:28.044Z,24.20
2023-12-15T22:09:55.031Z,23.30
2023-12-15T22:12:22.113Z,23.70
2023-12-15T22:14:49.050Z,19.20
2023-12-15T22:17:16.238Z,23.60
2023-12-15T22:19:43.170Z,22.40
2023-12-15T22:22:10.223Z,23.40
2023-12-15T22:24:37.139Z,23.30
2023-12-15T22:27:04.180Z,19.60
2023-12-15T22:29:31.022Z,21.90
2023-12-15T22:31:58.021Z,19.90
2023-12-15T22:34:25.062Z,21.20
2023-12-15T22:36:52.199Z,23.20
2023-12-15T22:39:19.437Z,20.70
2023-12-15T22:41:46.252Z,22.70
2023-12-15T22:44:13.192Z,24.40
2023-12-15T22:46:40.043Z,22.00
2023-12-15T22:49:07.080Z,19.20
2023-12-15T22:51:34.036Z,22.20
2023-12-15T22:54:00.970Z,20.30
2023-12-15T22:56:28.025Z,21.70
2023-12-15T22:58:54.867Z,20.30
2023-12-15T23:01:21.928Z,19.20
2023-12-15T23:03:49.258Z,21.40
2023-12-15T23:06:16.314Z,17.70
2023-12-15T23:08:43.157Z,18.70
2023-12-15T23:11:10.101Z,18.10
2023-12-15T23:13:36.936Z,20.40
2023-12-15T23:16:04.049Z,19.50
2023-12-15T23:18:31.228Z,18.40
2023-12-15T23:20:58.491Z,15.20
2023-12-15T23:23:25.339Z,19.20
2023-12-15T23:25:52.277Z,19.00
2023-12-15T23:28:19.200Z,21.00
2023-12-15T23:30:46.319Z,18.60
2023-12-15T23:33:13.315Z,17.50
2023-12-15T23:35:40.357Z,20.30
2023-12-15T23:38:07.301Z,18.10
2023-12-15T23:40:34.149Z,16.90
2023-12-15T23:43:01.423Z,21.50
2023-12-15T23:45:28.338Z,17.70
2023-12-15T23:47:55.274Z,16.30
2023-12-15T23:50:22.343Z,16.00
2023-12-15T23:52:49.281Z,14.90
2023-12-15T23:55:16.279Z,13.40
2023-12-15T23:57:43.215Z,13.70
